Time;durP1;ratioP1;P1;durP2;ratioP2;P2;SDS_P1;SDS_P2;PMS_P1;PMS_P2;Temp;Humidity;BMP_temperature;BMP_pressure;BME280_temperature;BME280_humidity;BME280_pressure;Samples;Min_cycle;Max_cycle;Signal;HPM_P1;HPM_P2
2021/06/12 00:00:32;;;;;;;18.52;12.35;;;19.00;99.90;;;;;;5045987;28;20055;-79
2021/06/12 00:03:00;;;;;;;18.25;12.55;;;18.90;99.90;;;;;;5046362;28;20132;-78
2021/06/12 00:05:28;;;;;;;23.95;12.45;;;18.90;99.90;;;;;;5058270;28;20105;-78
2021/06/12 00:07:54;;;;;;;22.40;12.65;;;18.90;99.90;;;;;;5044251;28;20050;-78
2021/06/12 00:10:26;;;;;;;19.15;12.15;;;18.90;99.90;;;;;;5042138;28;20053;-78
2021/06/12 00:12:53;;;;;;;17.05;11.63;;;18.90;99.90;;;;;;5059509;28;20049;-78
2021/06/12 00:15:22;;;;;;;19.95;12.05;;;19.00;99.90;;;;;;5044996;28;20050;-78
2021/06/12 00:17:48;;;;;;;17.50;11.48;;;19.00;99.90;;;;;;5054609;28;20054;-78
2021/06/12 00:20:24;;;;;;;16.88;11.13;;;19.00;99.90;;;;;;5046793;28;20433;-78
2021/06/12 00:22:51;;;;;;;17.48;11.45;;;19.00;99.90;;;;;;5072393;28;20068;-79
2021/06/12 00:25:21;;;;;;;20.92;11.55;;;19.00;99.90;;;;;;5043954;28;20054;-78
2021/06/12 00:27:49;;;;;;;15.13;10.82;;;19.00;99.90;;;;;;5046444;28;20115;-78
2021/06/12 00:30:16;;;;;;;17.80;11.73;;;19.00;99.90;;;;;;5038608;28;20128;-79
2021/06/12 00:32:43;;;;;;;19.98;11.00;;;19.10;99.90;;;;;;5045360;28;20100;-79
2021/06/12 00:35:12;;;;;;;17.55;11.77;;;19.10;99.90;;;;;;5043644;28;20053;-79
2021/06/12 00:37:39;;;;;;;19.77;11.02;;;19.10;99.90;;;;;;5057816;28;20065;-78
2021/06/12 00:40:09;;;;;;;16.83;10.80;;;19.20;99.90;;;;;;5042392;28;20133;-78
2021/06/12 00:42:39;;;;;;;19.10;11.13;;;19.20;99.90;;;;;;5044666;28;20873;-78
2021/06/12 00:45:10;;;;;;;16.55;10.48;;;19.20;99.90;;;;;;5049160;28;20473;-78
2021/06/12 00:47:36;;;;;;;17.00;11.00;;;19.20;99.90;;;;;;5042310;28;20076;-79
2021/06/12 00:50:05;;;;;;;17.55;11.13;;;19.20;99.90;;;;;;5042710;28;20113;-79
2021/06/12 00:52:31;;;;;;;15.35;10.55;;;19.20;99.90;;;;;;5054813;28;20069;-79
2021/06/12 00:54:58;;;;;;;17.00;10.43;;;19.30;99.90;;;;;;5077014;28;20439;-78
2021/06/12 00:57:25;;;;;;;17.00;10.35;;;19.30;99.90;;;;;;5041467;28;20052;-78
2021/06/12 00:59:52;;;;;;;14.73;9.95;;;19.30;99.90;;;;;;5042002;28;20055;-78
2021/06/12 01:02:19;;;;;;;18.48;10.93;;;19.30;99.90;;;;;;5045736;28;20423;-78
2021/06/12 01:04:45;;;;;;;19.02;11.27;;;19.30;99.90;;;;;;5045094;28;20152;-79
2021/06/12 01:07:12;;;;;;;17.65;11.07;;;19.30;99.90;;;;;;5047600;28;20068;-79
2021/06/12 01:09:39;;;;;;;14.95;10.15;;;19.20;99.90;;;;;;5048210;28;20051;-78
2021/06/12 01:12:18;;;;;;;22.70;11.10;;;19.20;99.90;;;;;;5043752;28;20084;-78
2021/06/12 01:14:51;;;;;;;23.88;11.30;;;19.20;99.90;;;;;;5055773;28;20381;-79
2021/06/12 01:17:42;;;;;;;19.63;11.27;;;19.20;99.90;;;;;;5047500;28;20132;-79
2021/06/12 01:20:18;;;;;;;17.05;10.88;;;19.20;99.90;;;;;;5063324;28;20144;-79
2021/06/12 01:22:47;;;;;;;18.35;10.52;;;19.20;99.90;;;;;;5078993;28;20133;-79
2021/06/12 01:25:51;;;;;;;16.75;10.38;;;19.20;99.90;;;;;;5070045;28;20124;-79
2021/06/12 01:28:26;;;;;;;17.88;10.18;;;19.20;99.90;;;;;;5059751;28;20045;-79
2021/06/12 01:30:56;;;;;;;19.23;10.60;;;19.10;99.90;;;;;;5062232;28;20479;-78
2021/06/12 01:33:24;;;;;;;19.38;10.98;;;19.10;99.90;;;;;;5043925;28;20075;-79
2021/06/12 01:35:57;;;;;;;17.70;11.13;;;19.10;99.90;;;;;;5061489;28;20579;-79
2021/06/12 01:38:35;;;;;;;20.85;11.13;;;19.10;99.90;;;;;;5047476;28;20044;-79
2021/06/12 01:41:07;;;;;;;18.48;10.52;;;19.10;99.90;;;;;;5046577;28;20045;-79
2021/06/12 01:43:35;;;;;;;19.15;10.10;;;19.10;99.90;;;;;;5048545;28;20475;-78
2021/06/12 01:46:04;;;;;;;22.55;12.55;;;19.00;99.90;;;;;;5046257;28;20044;-78
2021/06/12 01:48:31;;;;;;;16.65;10.13;;;18.90;99.90;;;;;;5040136;28;20076;-78
2021/06/12 01:51:02;;;;;;;19.90;11.23;;;18.90;99.90;;;;;;5059400;28;20064;-78
2021/06/12 01:53:32;;;;;;;19.88;11.43;;;18.80;99.90;;;;;;5045193;28;20049;-79
2021/06/12 01:56:10;;;;;;;21.05;11.52;;;18.70;99.90;;;;;;5047424;28;20053;-79
2021/06/12 01:58:41;;;;;;;20.55;11.85;;;18.70;99.90;;;;;;5046594;28;20054;-78
2021/06/12 02:01:14;;;;;;;20.40;11.20;;;18.60;99.90;;;;;;5058746;28;20559;-78
2021/06/12 02:03:44;;;;;;;22.05;12.50;;;18.60;99.90;;;;;;5051406;28;20045;-78
2021/06/12 02:06:13;;;;;;;21.42;10.65;;;18.60;99.90;;;;;;5043583;28;20075;-79
2021/06/12 02:08:41;;;;;;;18.42;10.57;;;18.50;99.90;;;;;;5044512;28;20053;-79
2021/06/12 02:11:08;;;;;;;17.63;10.18;;;18.50;99.90;;;;;;5044454;28;20079;-78
2021/06/12 02:13:36;;;;;;;18.70;9.77;;;18.50;99.90;;;;;;5045890;28;20053;-78
2021/06/12 02:16:03;;;;;;;28.73;10.60;;;18.50;99.90;;;;;;5076827;28;20052;-78
2021/06/12 02:18:31;;;;;;;18.15;10.07;;;18.40;99.90;;;;;;5040630;28;20041;-78
2021/06/12 02:20:59;;;;;;;17.80;9.70;;;18.40;99.90;;;;;;5040373;28;20391;-79
2021/06/12 02:23:28;;;;;;;21.33;10.57;;;18.40;99.90;;;;;;5046374;28;20052;-79
2021/06/12 02:25:55;;;;;;;22.50;11.32;;;18.40;99.90;;;;;;5045072;28;20049;-79
2021/06/12 02:28:27;;;;;;;22.70;10.90;;;18.40;99.90;;;;;;5047058;28;20524;-78
2021/06/12 02:31:02;;;;;;;24.58;13.13;;;18.40;99.90;;;;;;5063422;28;20054;-78
2021/06/12 02:33:31;;;;;;;20.42;10.52;;;18.50;99.90;;;;;;5046493;28;20045;-79
2021/06/12 02:36:01;;;;;;;17.20;10.40;;;18.50;99.90;;;;;;5061991;28;20056;-79
2021/06/12 02:38:29;;;;;;;22.13;11.18;;;18.50;99.90;;;;;;5041191;28;20140;-78
2021/06/12 02:40:57;;;;;;;22.02;11.52;;;18.50;99.90;;;;;;5051393;28;20051;-78
2021/06/12 02:43:25;;;;;;;19.95;10.45;;;18.50;99.90;;;;;;5062493;28;20072;-79
2021/06/12 02:45:52;;;;;;;23.13;10.23;;;18.50;99.90;;;;;;5043989;28;20132;-79
2021/06/12 02:48:20;;;;;;;22.08;9.93;;;18.50;99.90;;;;;;5040955;28;20438;-79
2021/06/12 02:50:49;;;;;;;25.40;11.50;;;18.50;99.90;;;;;;5050735;28;20045;-79
2021/06/12 02:53:17;;;;;;;21.85;11.18;;;18.40;99.90;;;;;;5045629;28;20056;-79
2021/06/12 02:55:48;;;;;;;22.73;11.05;;;18.40;99.90;;;;;;5044289;28;20044;-78
2021/06/12 02:58:23;;;;;;;23.17;10.63;;;18.40;99.90;;;;;;5043334;28;20057;-79
2021/06/12 03:00:50;;;;;;;25.25;12.07;;;18.30;99.90;;;;;;5046566;28;20052;-79
2021/06/12 03:03:17;;;;;;;20.45;10.50;;;18.30;99.90;;;;;;5041454;28;20053;-79
2021/06/12 03:05:49;;;;;;;23.77;11.10;;;18.30;99.90;;;;;;5046799;28;20053;-79
2021/06/12 03:08:17;;;;;;;25.77;11.45;;;18.20;99.90;;;;;;5047251;28;20049;-79
2021/06/12 03:10:45;;;;;;;23.25;12.15;;;18.20;99.90;;;;;;5045415;28;20053;-78
2021/06/12 03:13:17;;;;;;;28.00;12.15;;;18.10;99.90;;;;;;5048316;28;20049;-79
2021/06/12 03:15:47;;;;;;;33.88;13.95;;;18.10;99.90;;;;;;5044950;28;20060;-79
2021/06/12 03:18:14;;;;;;;27.17;12.05;;;18.00;99.90;;;;;;5040192;28;20053;-78
2021/06/12 03:20:42;;;;;;;27.13;12.50;;;18.00;99.90;;;;;;5046028;28;20063;-79
2021/06/12 03:23:09;;;;;;;23.08;11.13;;;18.00;99.90;;;;;;5043435;28;20079;-79
2021/06/12 03:25:37;;;;;;;27.85;12.57;;;18.00;99.90;;;;;;5042128;28;20057;-79
2021/06/12 03:28:04;;;;;;;25.42;11.43;;;18.00;99.90;;;;;;5075523;28;20045;-78
2021/06/12 03:30:31;;;;;;;19.75;10.73;;;18.00;99.90;;;;;;5045546;28;20141;-79
2021/06/12 03:33:00;;;;;;;17.63;9.05;;;17.90;99.90;;;;;;5056899;28;20210;-79
2021/06/12 03:35:27;;;;;;;20.10;10.02;;;18.00;99.90;;;;;;5049104;28;20883;-79
2021/06/12 03:37:55;;;;;;;24.83;10.73;;;18.00;99.90;;;;;;5044131;28;20040;-78
2021/06/12 03:40:23;;;;;;;20.27;9.93;;;17.90;99.90;;;;;;5047159;28;20569;-78
2021/06/12 03:42:51;;;;;;;21.23;9.77;;;18.00;99.90;;;;;;5043546;28;20045;-78
2021/06/12 03:45:21;;;;;;;16.42;9.65;;;18.00;99.90;;;;;;5042903;28;20052;-79
2021/06/12 03:47:50;;;;;;;16.90;9.25;;;18.00;99.90;;;;;;5045064;28;20071;-78
2021/06/12 03:50:18;;;;;;;18.33;9.30;;;18.00;99.90;;;;;;5041819;28;20044;-78
2021/06/12 03:52:46;;;;;;;18.75;9.70;;;18.00;99.90;;;;;;5047993;28;20593;-79
2021/06/12 03:55:12;;;;;;;21.30;10.15;;;18.10;99.90;;;;;;5043419;28;20396;-78
2021/06/12 03:57:40;;;;;;;22.35;9.38;;;18.10;99.90;;;;;;5044650;28;20045;-79
2021/06/12 04:00:09;;;;;;;24.40;9.70;;;18.20;99.90;;;;;;5041840;28;20057;-79
2021/06/12 04:02:47;;;;;;;23.73;9.55;;;18.20;99.90;;;;;;5043012;28;20064;-78
2021/06/12 04:05:14;;;;;;;20.10;9.27;;;18.20;99.90;;;;;;5045394;28;20136;-78
2021/06/12 04:07:41;;;;;;;17.08;8.70;;;18.30;99.90;;;;;;5045318;28;20082;-78
2021/06/12 04:10:09;;;;;;;11.60;7.72;;;18.20;99.90;;;;;;5045360;28;20060;-78
2021/06/12 04:12:37;;;;;;;15.40;7.97;;;18.20;99.90;;;;;;5044315;28;20048;-78
2021/06/12 04:15:08;;;;;;;15.73;7.38;;;18.20;99.90;;;;;;5077630;28;21066;-78
2021/06/12 04:17:35;;;;;;;16.77;8.45;;;18.20;99.90;;;;;;5044099;28;20050;-78
2021/06/12 04:20:03;;;;;;;13.98;7.97;;;18.20;99.90;;;;;;5046205;28;20569;-78
2021/06/12 04:22:30;;;;;;;16.40;8.82;;;18.20;99.90;;;;;;5078674;28;20124;-78
2021/06/12 04:24:56;;;;;;;18.83;7.72;;;18.30;99.90;;;;;;5063203;28;20054;-78
2021/06/12 04:27:23;;;;;;;20.92;9.38;;;18.30;99.90;;;;;;5041649;28;20104;-78
2021/06/12 04:29:50;;;;;;;17.20;7.95;;;18.30;99.90;;;;;;5039830;28;20604;-77
2021/06/12 04:32:16;;;;;;;14.95;7.65;;;18.40;99.90;;;;;;5048907;28;20045;-78
2021/06/12 04:34:43;;;;;;;21.08;8.00;;;18.40;99.90;;;;;;5041372;28;20063;-78
2021/06/12 04:37:10;;;;;;;22.70;9.80;;;18.50;99.90;;;;;;5042785;28;20053;-78
2021/06/12 04:39:37;;;;;;;17.98;7.72;;;18.50;99.90;;;;;;5044971;28;20425;-78
2021/06/12 04:42:04;;;;;;;14.00;8.10;;;18.50;99.90;;;;;;5045652;28;20048;-78
2021/06/12 04:44:32;;;;;;;16.88;8.45;;;18.50;99.90;;;;;;5043240;28;20045;-78
2021/06/12 04:46:59;;;;;;;17.65;7.82;;;18.60;99.90;;;;;;5046781;28;20045;-78
2021/06/12 04:49:25;;;;;;;16.42;7.57;;;18.70;99.90;;;;;;5047555;28;20471;-78
2021/06/12 04:51:52;;;;;;;11.77;6.60;;;18.70;99.90;;;;;;5050049;28;20045;-79
2021/06/12 04:54:19;;;;;;;13.68;6.90;;;18.80;99.90;;;;;;5050572;28;20045;-78
2021/06/12 04:56:46;;;;;;;15.95;7.13;;;18.90;99.90;;;;;;5046967;28;20059;-78
2021/06/12 04:59:12;;;;;;;12.90;6.82;;;18.90;99.90;;;;;;5045597;28;20056;-78
2021/06/12 05:01:39;;;;;;;16.63;7.30;;;19.00;99.90;;;;;;5047551;28;20059;-78
2021/06/12 05:04:06;;;;;;;15.90;6.50;;;19.00;99.90;;;;;;5049515;28;20398;-78
2021/06/12 05:06:32;;;;;;;17.20;6.30;;;19.10;99.90;;;;;;5044029;28;20056;-78
2021/06/12 05:08:59;;;;;;;14.80;7.00;;;19.20;99.90;;;;;;5045378;28;20053;-78
2021/06/12 05:11:27;;;;;;;13.57;6.20;;;19.30;99.90;;;;;;5079479;28;20052;-78
2021/06/12 05:13:54;;;;;;;12.48;6.25;;;19.30;99.90;;;;;;5039115;28;20049;-78
2021/06/12 05:16:22;;;;;;;15.95;6.85;;;19.40;99.90;;;;;;5049952;28;20057;-78
2021/06/12 05:18:48;;;;;;;10.98;5.57;;;19.40;99.90;;;;;;5049550;28;20057;-78
2021/06/12 05:21:16;;;;;;;12.23;6.05;;;19.60;99.90;;;;;;5076057;28;20073;-78
2021/06/12 05:23:43;;;;;;;9.85;5.18;;;19.60;99.90;;;;;;5047192;28;20049;-79
2021/06/12 05:26:11;;;;;;;11.68;4.70;;;19.70;99.90;;;;;;5047894;28;20140;-78
2021/06/12 05:28:38;;;;;;;7.30;4.55;;;19.70;99.90;;;;;;5044970;28;20053;-78
2021/06/12 05:31:05;;;;;;;14.15;4.80;;;19.80;99.90;;;;;;5045941;28;20048;-78
2021/06/12 05:33:33;;;;;;;13.02;4.18;;;19.80;99.90;;;;;;5046803;28;20404;-78
2021/06/12 05:36:02;;;;;;;10.45;5.10;;;19.90;99.90;;;;;;5048042;28;20470;-78
2021/06/12 05:38:30;;;;;;;5.07;3.05;;;19.90;99.90;;;;;;5043844;28;20048;-78
2021/06/12 05:40:57;;;;;;;10.55;4.80;;;20.00;99.90;;;;;;5081720;28;20108;-78
2021/06/12 05:43:24;;;;;;;6.97;4.03;;;20.00;99.90;;;;;;5046941;28;20519;-79
2021/06/12 05:45:51;;;;;;;9.48;4.35;;;20.00;99.90;;;;;;5048842;28;20055;-78
2021/06/12 05:48:18;;;;;;;8.82;4.07;;;20.00;99.90;;;;;;5046560;28;20133;-78
2021/06/12 05:50:44;;;;;;;8.98;3.45;;;20.10;99.90;;;;;;5044882;28;20049;-79
2021/06/12 05:53:11;;;;;;;5.00;3.20;;;20.10;99.90;;;;;;5038359;28;20045;-78
2021/06/12 05:55:38;;;;;;;7.47;3.60;;;20.10;99.90;;;;;;5042161;28;20413;-77
2021/06/12 05:58:05;;;;;;;9.63;3.38;;;20.10;99.90;;;;;;5051664;28;22061;-78
2021/06/12 06:00:32;;;;;;;7.18;3.08;;;20.10;99.90;;;;;;5028871;28;20043;-78
2021/06/12 06:02:59;;;;;;;6.30;3.45;;;20.20;99.90;;;;;;5045595;28;20045;-78
2021/06/12 06:05:26;;;;;;;8.23;2.30;;;20.30;99.90;;;;;;5045276;28;20141;-78
2021/06/12 06:07:53;;;;;;;7.85;2.40;;;20.40;99.90;;;;;;5036496;28;20045;-78
2021/06/12 06:10:20;;;;;;;6.13;2.63;;;20.50;99.90;;;;;;5069699;28;20489;-78
2021/06/12 06:12:47;;;;;;;5.70;2.78;;;20.40;99.90;;;;;;5059643;28;20082;-78
2021/06/12 06:15:15;;;;;;;4.53;2.40;;;20.60;99.90;;;;;;5045463;28;20061;-78
2021/06/12 06:17:42;;;;;;;8.13;2.35;;;20.70;99.90;;;;;;5042972;28;20083;-78
2021/06/12 06:20:11;;;;;;;5.10;2.60;;;20.80;99.90;;;;;;5044779;28;20084;-78
2021/06/12 06:22:38;;;;;;;8.00;2.67;;;20.90;99.90;;;;;;5043960;28;20514;-78
2021/06/12 06:25:07;;;;;;;6.15;2.65;;;21.00;99.90;;;;;;5043067;28;20117;-78
2021/06/12 06:27:34;;;;;;;5.32;2.70;;;21.10;99.90;;;;;;5034344;28;22173;-78
2021/06/12 06:30:03;;;;;;;7.75;3.20;;;21.10;99.90;;;;;;5045206;28;20111;-78
2021/06/12 06:32:32;;;;;;;7.93;2.47;;;21.20;99.90;;;;;;5036716;28;20056;-79
2021/06/12 06:35:00;;;;;;;3.55;2.70;;;21.10;99.90;;;;;;5066647;28;20049;-78
2021/06/12 06:37:27;;;;;;;5.28;2.15;;;21.10;99.90;;;;;;5041707;28;20069;-78
2021/06/12 06:39:54;;;;;;;6.28;2.60;;;21.20;99.90;;;;;;5045165;28;20061;-79
2021/06/12 06:42:21;;;;;;;7.15;2.80;;;21.20;99.90;;;;;;5048438;28;20053;-79
2021/06/12 06:44:48;;;;;;;6.88;2.45;;;21.20;99.90;;;;;;5039966;28;20417;-79
2021/06/12 06:47:15;;;;;;;6.78;2.83;;;21.10;99.90;;;;;;5041812;28;20049;-78
2021/06/12 06:49:41;;;;;;;3.88;2.08;;;21.00;99.90;;;;;;5043758;28;21629;-79
2021/06/12 06:52:08;;;;;;;3.55;2.20;;;21.00;99.90;;;;;;5040113;28;20051;-78
2021/06/12 06:54:35;;;;;;;3.42;2.22;;;20.90;99.90;;;;;;5046497;28;20113;-78
2021/06/12 06:57:02;;;;;;;8.25;2.67;;;21.00;99.90;;;;;;5045857;28;20050;-78
2021/06/12 06:59:30;;;;;;;4.70;2.17;;;21.00;99.90;;;;;;5041488;28;20073;-79
2021/06/12 07:01:57;;;;;;;6.30;2.38;;;21.00;99.90;;;;;;5043618;28;20055;-78
2021/06/12 07:04:24;;;;;;;4.93;1.88;;;21.10;99.90;;;;;;5041015;28;20209;-79
2021/06/12 07:06:51;;;;;;;7.43;3.00;;;21.10;99.90;;;;;;5046848;28;20119;-78
2021/06/12 07:09:18;;;;;;;3.42;1.90;;;21.10;99.80;;;;;;5040555;28;20080;-78
2021/06/12 07:11:45;;;;;;;6.72;2.58;;;21.20;99.00;;;;;;5024914;28;20057;-79
2021/06/12 07:14:12;;;;;;;3.05;2.22;;;21.20;99.20;;;;;;5039568;28;20053;-78
2021/06/12 07:16:39;;;;;;;4.32;2.35;;;21.20;99.00;;;;;;5062886;28;20053;-78
2021/06/12 07:19:06;;;;;;;6.18;2.40;;;21.30;98.70;;;;;;5045469;28;20061;-78
2021/06/12 07:21:33;;;;;;;5.35;2.53;;;21.40;98.80;;;;;;5044350;28;20073;-79
2021/06/12 07:24:01;;;;;;;6.43;2.28;;;21.40;98.50;;;;;;5076710;28;20052;-78
2021/06/12 07:26:28;;;;;;;6.70;2.53;;;21.50;98.60;;;;;;5041069;28;22546;-78
2021/06/12 07:28:55;;;;;;;5.82;2.83;;;21.60;98.80;;;;;;5043683;28;20037;-78
2021/06/12 07:31:38;;;;;;;8.43;2.42;;;21.60;98.40;;;;;;5047151;28;20120;-78
2021/06/12 07:34:06;;;;;;;6.95;2.90;;;21.60;98.20;;;;;;5043794;28;20061;-78
2021/06/12 07:36:33;;;;;;;4.88;2.90;;;21.60;97.40;;;;;;5049032;28;20045;-78
2021/06/12 07:39:01;;;;;;;5.93;2.47;;;21.70;97.40;;;;;;5040888;28;20076;-78
2021/06/12 07:41:28;;;;;;;5.40;2.95;;;21.70;97.90;;;;;;5076550;28;20056;-78
2021/06/12 07:43:55;;;;;;;6.65;2.53;;;21.80;97.60;;;;;;5045556;28;20539;-78
2021/06/12 07:46:22;;;;;;;6.00;2.97;;;21.90;97.70;;;;;;5046239;28;20041;-80
2021/06/12 07:48:49;;;;;;;6.15;2.67;;;22.00;96.50;;;;;;5044191;28;20384;-79
2021/06/12 07:51:16;;;;;;;7.07;2.72;;;22.10;97.00;;;;;;5042746;28;20428;-79
2021/06/12 07:53:43;;;;;;;6.35;3.55;;;22.10;96.90;;;;;;5038579;28;20109;-79
2021/06/12 07:56:10;;;;;;;5.57;2.70;;;22.10;95.40;;;;;;5048207;28;20496;-79
2021/06/12 07:58:37;;;;;;;5.93;2.42;;;22.10;96.50;;;;;;5045239;28;20113;-79
2021/06/12 08:01:06;;;;;;;3.78;2.13;;;22.20;95.10;;;;;;5041725;28;20069;-79
2021/06/12 08:03:35;;;;;;;6.10;2.20;;;22.30;95.60;;;;;;5042840;28;20106;-79
2021/06/12 08:06:02;;;;;;;5.43;2.47;;;22.40;95.40;;;;;;5045823;28;20079;-79
2021/06/12 08:08:29;;;;;;;7.18;2.72;;;22.50;94.50;;;;;;5047552;28;20091;-80
2021/06/12 08:10:56;;;;;;;6.43;2.33;;;22.70;94.70;;;;;;5053811;28;20124;-80
2021/06/12 08:13:23;;;;;;;4.07;2.20;;;22.80;93.30;;;;;;5047385;28;20707;-80
2021/06/12 08:15:49;;;;;;;5.45;2.40;;;22.90;93.20;;;;;;5035559;28;20148;-80
2021/06/12 08:18:16;;;;;;;5.00;2.45;;;22.80;92.40;;;;;;5061719;28;20046;-80
2021/06/12 08:20:44;;;;;;;9.57;2.20;;;22.90;92.20;;;;;;5048177;28;20057;-80
2021/06/12 08:23:10;;;;;;;8.77;2.45;;;22.80;91.30;;;;;;5047267;28;20072;-79
2021/06/12 08:25:37;;;;;;;5.82;2.92;;;22.80;91.70;;;;;;5047174;28;20109;-79
2021/06/12 08:28:05;;;;;;;8.43;2.35;;;22.70;91.70;;;;;;5048354;28;20045;-80
2021/06/12 08:30:38;;;;;;;5.05;2.80;;;22.70;91.90;;;;;;5048002;28;20044;-80
2021/06/12 08:33:07;;;;;;;5.27;2.47;;;22.80;92.50;;;;;;5082904;28;20124;-80
2021/06/12 08:35:35;;;;;;;7.97;2.85;;;22.90;92.60;;;;;;5046569;28;20136;-80
2021/06/12 08:38:08;;;;;;;4.85;2.20;;;23.10;92.00;;;;;;5049061;28;20052;-80
2021/06/12 08:40:36;;;;;;;7.00;2.63;;;23.30;91.90;;;;;;5051854;28;20049;-80
2021/06/12 08:43:06;;;;;;;6.05;2.38;;;23.50;90.80;;;;;;5046479;28;20052;-79
2021/06/12 08:45:33;;;;;;;9.35;2.40;;;23.60;91.10;;;;;;5062455;28;20221;-79
2021/06/12 08:48:02;;;;;;;8.85;2.83;;;23.70;90.80;;;;;;5048954;28;20408;-79
2021/06/12 08:50:31;;;;;;;5.78;2.30;;;23.80;91.10;;;;;;5046001;28;20058;-79
2021/06/12 08:52:58;;;;;;;6.20;2.63;;;23.80;91.80;;;;;;5051047;28;20139;-79
2021/06/12 08:55:39;;;;;;;4.38;1.98;;;23.90;90.00;;;;;;5032670;28;20045;-79
2021/06/12 08:58:06;;;;;;;6.25;2.25;;;23.80;89.30;;;;;;5049367;28;20060;-78
2021/06/12 09:00:33;;;;;;;5.78;2.40;;;23.70;90.60;;;;;;5046310;28;20056;-79
2021/06/12 09:03:07;;;;;;;9.65;2.85;;;23.70;89.90;;;;;;5043417;28;20498;-79
2021/06/12 09:05:58;;;;;;;7.30;2.70;;;23.80;90.40;;;;;;5051126;28;20151;-80
2021/06/12 09:08:27;;;;;;;8.10;2.58;;;23.90;88.20;;;;;;5072367;28;20044;-79
2021/06/12 09:11:04;;;;;;;6.03;2.30;;;23.80;88.40;;;;;;5030394;28;20052;-79
2021/06/12 09:13:46;;;;;;;9.00;1.80;;;23.80;88.10;;;;;;5054774;28;20079;-79
2021/06/12 09:16:37;;;;;;;11.65;2.65;;;23.90;88.80;;;;;;5074903;28;20076;-79
2021/06/12 09:19:21;;;;;;;7.45;2.25;;;23.90;88.30;;;;;;5061125;28;20052;-79
2021/06/12 09:21:57;;;;;;;4.82;1.92;;;24.00;88.90;;;;;;5062500;28;20051;-80
2021/06/12 09:24:29;;;;;;;8.10;2.15;;;24.10;88.10;;;;;;5059860;28;20471;-79
2021/06/12 09:26:58;;;;;;;4.93;1.87;;;24.30;87.70;;;;;;5043944;28;20054;-80
2021/06/12 09:29:40;;;;;;;4.55;1.85;;;24.40;85.60;;;;;;5046962;28;20363;-79
2021/06/12 09:32:21;;;;;;;7.15;1.45;;;24.50;85.90;;;;;;5058176;28;20049;-79
2021/06/12 09:34:51;;;;;;;7.20;1.75;;;24.70;83.10;;;;;;5071571;28;20090;-79
2021/06/12 09:37:27;;;;;;;6.43;2.47;;;24.70;81.80;;;;;;5077764;28;20045;-80
2021/06/12 09:39:59;;;;;;;9.93;2.13;;;24.90;82.20;;;;;;5052141;28;20072;-79
2021/06/12 09:42:46;;;;;;;3.38;1.33;;;24.90;81.30;;;;;;5052680;28;20137;-80
2021/06/12 09:45:23;;;;;;;4.22;1.50;;;24.90;78.60;;;;;;5075584;28;20464;-80
2021/06/12 09:47:51;;;;;;;7.03;1.65;;;24.90;79.20;;;;;;5047342;28;20045;-79
2021/06/12 09:50:21;;;;;;;6.85;1.77;;;24.90;78.70;;;;;;5046889;28;20061;-80
2021/06/12 09:52:52;;;;;;;23.30;1.63;;;24.90;77.50;;;;;;5050748;28;20504;-79
2021/06/12 09:55:31;;;;;;;7.43;1.83;;;24.90;80.20;;;;;;5041330;28;20913;-80
2021/06/12 09:58:00;;;;;;;4.20;1.50;;;25.00;78.20;;;;;;5043772;28;20057;-80
2021/06/12 10:00:36;;;;;;;8.15;1.83;;;25.10;78.90;;;;;;5079639;28;20087;-80
2021/06/12 10:03:15;;;;;;;5.38;1.58;;;25.20;78.80;;;;;;5079302;28;20055;-80
2021/06/12 10:05:43;;;;;;;4.32;1.45;;;25.20;77.20;;;;;;5041806;28;20139;-80
2021/06/12 10:08:13;;;;;;;5.43;1.42;;;25.40;78.20;;;;;;5061913;28;20052;-80
2021/06/12 10:10:47;;;;;;;5.15;1.42;;;25.50;76.50;;;;;;5045895;28;22249;-79
2021/06/12 10:13:16;;;;;;;8.93;1.63;;;25.60;71.50;;;;;;5050102;28;20045;-80
2021/06/12 10:15:46;;;;;;;3.70;1.58;;;25.70;73.70;;;;;;5045942;28;20057;-79
2021/06/12 10:18:19;;;;;;;6.18;1.55;;;25.70;72.80;;;;;;5044703;28;20112;-80
2021/06/12 10:20:46;;;;;;;3.42;2.13;;;25.70;69.60;;;;;;5074255;28;20492;-80
2021/06/12 10:23:15;;;;;;;4.47;1.50;;;25.70;72.60;;;;;;5047597;28;20053;-80
2021/06/12 10:25:42;;;;;;;5.82;1.48;;;25.90;69.80;;;;;;5048169;28;20040;-80
2021/06/12 10:28:12;;;;;;;4.55;1.50;;;26.10;72.50;;;;;;5047605;28;20228;-80
2021/06/12 10:30:40;;;;;;;6.28;1.20;;;26.40;71.20;;;;;;5046743;28;20079;-80
2021/06/12 10:33:08;;;;;;;3.92;1.40;;;26.70;68.50;;;;;;5042820;28;20475;-80
2021/06/12 10:35:35;;;;;;;8.20;1.65;;;26.60;68.50;;;;;;5052627;28;20124;-80
2021/06/12 10:38:16;;;;;;;4.50;1.10;;;26.30;68.90;;;;;;5045757;28;20052;-80
2021/06/12 10:40:53;;;;;;;3.65;1.02;;;26.20;70.70;;;;;;5042694;28;20045;-80
2021/06/12 10:43:22;;;;;;;4.65;1.33;;;26.20;70.20;;;;;;5047032;28;20566;-80
2021/06/12 10:46:09;;;;;;;5.65;1.58;;;26.30;69.20;;;;;;5044059;28;20061;-80
2021/06/12 10:48:41;;;;;;;5.15;1.40;;;26.40;68.10;;;;;;5077742;28;20053;-80
2021/06/12 10:51:14;;;;;;;7.22;1.27;;;26.30;70.70;;;;;;5075803;28;20053;-80
2021/06/12 10:53:44;;;;;;;5.53;1.35;;;26.40;72.00;;;;;;5075521;28;20045;-80
2021/06/12 10:56:30;;;;;;;6.55;1.23;;;26.50;69.90;;;;;;5065028;28;20128;-80
2021/06/12 10:58:57;;;;;;;9.30;2.08;;;26.80;71.20;;;;;;5050825;28;20048;-80
2021/06/12 11:01:24;;;;;;;5.53;1.55;;;27.10;69.90;;;;;;5046562;28;20053;-80
2021/06/12 11:06:54;;;;;;;10.20;1.42;;;27.40;71.10;;;;;;5046824;28;20071;-80
2021/06/12 11:09:34;;;;;;;5.95;1.70;;;27.60;66.40;;;;;;5051101;28;20140;-80
2021/06/12 11:12:28;;;;;;;5.65;1.17;;;27.60;67.90;;;;;;5048057;28;20060;-80
2021/06/12 11:14:56;;;;;;;;;;;27.40;68.50;;;;;;5043123;28;20052;-80
2021/06/12 11:17:22;;;;;;;4.65;1.40;;;27.40;66.20;;;;;;5069983;28;19929;-80
2021/06/12 11:20:12;;;;;;;7.85;1.63;;;27.40;68.10;;;;;;5042749;28;20049;-80
2021/06/12 11:22:51;;;;;;;6.20;1.35;;;27.10;67.00;;;;;;5034380;28;20049;-80
2021/06/12 11:25:18;;;;;;;4.03;1.20;;;26.70;67.70;;;;;;5065048;28;20892;-79
2021/06/12 11:27:47;;;;;;;6.15;1.20;;;26.50;66.20;;;;;;5053315;28;20053;-79
2021/06/12 11:30:14;;;;;;;6.82;1.35;;;26.30;68.60;;;;;;5045658;28;20056;-79
2021/06/12 11:32:57;;;;;;;4.30;1.30;;;26.40;70.20;;;;;;5058675;28;20071;-79
2021/06/12 11:35:45;;;;;;;6.80;1.77;;;26.70;72.10;;;;;;5046453;28;20061;-79
2021/06/12 11:38:35;;;;;;;6.00;1.73;;;27.20;68.70;;;;;;5076352;28;20504;-79
2021/06/12 11:41:13;;;;;;;16.27;1.92;;;27.10;69.20;;;;;;5047001;28;20064;-79
2021/06/12 11:43:48;;;;;;;4.60;1.30;;;27.30;67.80;;;;;;5045430;28;20051;-79
2021/06/12 11:46:31;;;;;;;5.47;1.42;;;27.30;65.70;;;;;;5045357;28;20075;-79
2021/06/12 11:48:59;;;;;;;4.70;1.25;;;27.30;66.10;;;;;;5043461;28;20065;-80
2021/06/12 11:51:31;;;;;;;4.85;1.40;;;27.20;66.40;;;;;;5043630;28;20061;-79
2021/06/12 11:54:16;;;;;;;4.93;1.57;;;27.20;66.90;;;;;;5044284;28;20436;-79
2021/06/12 11:56:46;;;;;;;7.45;1.95;;;27.00;64.00;;;;;;5044447;28;20117;-79
2021/06/12 11:59:15;;;;;;;3.33;0.90;;;27.00;65.40;;;;;;5045088;28;20407;-79
2021/06/12 12:01:56;;;;;;;2.88;1.20;;;27.00;64.10;;;;;;5043353;28;20057;-79
2021/06/12 12:04:24;;;;;;;4.30;1.25;;;26.80;65.90;;;;;;5044002;28;20063;-80
2021/06/12 12:06:53;;;;;;;1.85;0.90;;;26.60;66.80;;;;;;5044501;28;20045;-79
2021/06/12 12:09:42;;;;;;;3.80;1.10;;;27.20;67.90;;;;;;5050353;28;20053;-79
2021/06/12 12:12:11;;;;;;;8.95;1.17;;;27.70;66.90;;;;;;5061484;28;20045;-79
2021/06/12 12:14:41;;;;;;;4.45;1.20;;;28.50;65.70;;;;;;5042069;28;20055;-79
2021/06/12 12:17:27;;;;;;;2.10;0.98;;;29.10;61.40;;;;;;5080871;28;20053;-79
2021/06/12 12:20:08;;;;;;;3.85;0.90;;;29.30;60.50;;;;;;5078802;28;20072;-79
2021/06/12 12:22:48;;;;;;;4.57;1.00;;;29.60;59.30;;;;;;5035392;28;20059;-79
2021/06/12 12:25:25;;;;;;;4.00;0.77;;;29.60;60.80;;;;;;5051782;28;20040;-79
2021/06/12 12:28:04;;;;;;;3.72;0.93;;;29.90;61.20;;;;;;5051051;28;20051;-79
2021/06/12 12:30:31;;;;;;;3.33;1.00;;;30.10;58.40;;;;;;5052392;28;20132;-80
2021/06/12 12:33:14;;;;;;;2.72;0.77;;;29.70;58.10;;;;;;5050243;28;20156;-80
2021/06/12 12:35:41;;;;;;;2.65;0.93;;;29.30;59.70;;;;;;5079345;28;20041;-80
2021/06/12 12:38:19;;;;;;;3.72;1.10;;;29.70;62.50;;;;;;5049818;28;20109;-80
2021/06/12 12:40:48;;;;;;;3.45;0.93;;;30.10;57.50;;;;;;5061652;28;20123;-80
2021/06/12 12:43:19;;;;;;;4.15;1.15;;;30.20;56.70;;;;;;5058673;28;20048;-80
2021/06/12 12:45:48;;;;;;;3.20;1.10;;;30.10;57.90;;;;;;5044254;28;20044;-80
2021/06/12 12:48:16;;;;;;;10.88;1.55;;;30.30;56.40;;;;;;5043247;28;20091;-80
2021/06/12 12:50:45;;;;;;;2.72;1.05;;;30.10;56.10;;;;;;5044411;28;20064;-80
2021/06/12 12:53:19;;;;;;;5.63;1.20;;;29.50;55.90;;;;;;5074508;28;20065;-79
2021/06/12 12:56:02;;;;;;;6.20;1.33;;;29.00;57.00;;;;;;5079127;28;20080;-80
2021/06/12 12:58:29;;;;;;;2.35;0.90;;;29.70;59.00;;;;;;5042660;28;20045;-80